sensor_id;sensor_type;location;lat;lon;timestamp;P1;durP1;ratioP1;P2;durP2;ratioP2
30068;SDS011;16894;49.456;10.644;2022-12-11T00:01:29;50.42;;;25.90;;
30068;SDS011;16894;49.456;10.644;2022-12-11T00:04:13;52.28;;;26.23;;
30068;SDS011;16894;49.456;10.644;2022-12-11T00:06:57;51.45;;;26.80;;
30068;SDS011;16894;49.456;10.644;2022-12-11T00:09:41;55.63;;;27.30;;
30068;SDS011;16894;49.456;10.644;2022-12-11T00:12:25;54.35;;;29.58;;
30068;SDS011;16894;49.456;10.644;2022-12-11T00:15:09;57.92;;;28.98;;
30068;SDS011;16894;49.456;10.644;2022-12-11T00:17:54;63.13;;;29.50;;
30068;SDS011;16894;49.456;10.644;2022-12-11T00:20:38;56.60;;;29.55;;
30068;SDS011;16894;49.456;10.644;2022-12-11T00:23:23;62.70;;;30.33;;
30068;SDS011;16894;49.456;10.644;2022-12-11T00:26:08;57.10;;;30.05;;
30068;SDS011;16894;49.456;10.644;2022-12-11T00:28:57;58.67;;;27.60;;
30068;SDS011;16894;49.456;10.644;2022-12-11T00:31:41;62.00;;;30.15;;
30068;SDS011;16894;49.456;10.644;2022-12-11T00:34:25;63.70;;;30.38;;
30068;SDS011;16894;49.456;10.644;2022-12-11T00:37:09;65.03;;;30.80;;
30068;SDS011;16894;49.456;10.644;2022-12-11T00:39:53;60.65;;;31.83;;
30068;SDS011;16894;49.456;10.644;2022-12-11T00:42:37;61.95;;;30.23;;
30068;SDS011;16894;49.456;10.644;2022-12-11T00:45:22;60.65;;;30.23;;
30068;SDS011;16894;49.456;10.644;2022-12-11T00:48:06;61.80;;;30.73;;
30068;SDS011;16894;49.456;10.644;2022-12-11T00:50:50;63.95;;;30.08;;
30068;SDS011;16894;49.456;10.644;2022-12-11T00:53:34;58.47;;;29.17;;
30068;SDS011;16894;49.456;10.644;2022-12-11T00:56:20;55.83;;;29.10;;
30068;SDS011;16894;49.456;10.644;2022-12-11T00:59:04;60.60;;;29.48;;
30068;SDS011;16894;49.456;10.644;2022-12-11T01:01:49;60.55;;;30.13;;
30068;SDS011;16894;49.456;10.644;2022-12-11T01:04:34;58.33;;;28.27;;
30068;SDS011;16894;49.456;10.644;2022-12-11T01:07:19;57.05;;;28.45;;
30068;SDS011;16894;49.456;10.644;2022-12-11T01:10:03;55.35;;;26.95;;
30068;SDS011;16894;49.456;10.644;2022-12-11T01:13:06;56.40;;;28.48;;
30068;SDS011;16894;49.456;10.644;2022-12-11T01:15:50;57.72;;;26.85;;
30068;SDS011;16894;49.456;10.644;2022-12-11T01:18:35;49.65;;;25.40;;
30068;SDS011;16894;49.456;10.644;2022-12-11T01:21:19;48.13;;;25.98;;
30068;SDS011;16894;49.456;10.644;2022-12-11T01:24:03;53.00;;;25.45;;
30068;SDS011;16894;49.456;10.644;2022-12-11T01:26:48;51.92;;;27.67;;
30068;SDS011;16894;49.456;10.644;2022-12-11T01:29:33;47.78;;;24.77;;
30068;SDS011;16894;49.456;10.644;2022-12-11T01:32:17;54.92;;;26.92;;
30068;SDS011;16894;49.456;10.644;2022-12-11T01:35:02;50.28;;;25.50;;
30068;SDS011;16894;49.456;10.644;2022-12-11T01:37:47;44.35;;;22.80;;
30068;SDS011;16894;49.456;10.644;2022-12-11T01:40:32;47.50;;;24.55;;
30068;SDS011;16894;49.456;10.644;2022-12-11T01:43:16;46.40;;;25.35;;
30068;SDS011;16894;49.456;10.644;2022-12-11T01:46:00;47.67;;;23.67;;
30068;SDS011;16894;49.456;10.644;2022-12-11T01:48:44;54.65;;;24.38;;
30068;SDS011;16894;49.456;10.644;2022-12-11T01:51:29;49.17;;;25.98;;
30068;SDS011;16894;49.456;10.644;2022-12-11T01:54:16;45.25;;;23.77;;
30068;SDS011;16894;49.456;10.644;2022-12-11T01:57:03;53.90;;;24.98;;
30068;SDS011;16894;49.456;10.644;2022-12-11T01:59:51;49.60;;;23.88;;
30068;SDS011;16894;49.456;10.644;2022-12-11T02:02:35;47.13;;;24.50;;
30068;SDS011;16894;49.456;10.644;2022-12-11T02:05:19;55.47;;;25.67;;
30068;SDS011;16894;49.456;10.644;2022-12-11T02:08:03;44.60;;;24.33;;
30068;SDS011;16894;49.456;10.644;2022-12-11T02:14:06;48.22;;;24.02;;
30068;SDS011;16894;49.456;10.644;2022-12-11T02:27:31;49.47;;;23.15;;
30068;SDS011;16894;49.456;10.644;2022-12-11T02:30:27;41.28;;;23.00;;
30068;SDS011;16894;49.456;10.644;2022-12-11T02:33:12;44.00;;;22.60;;
30068;SDS011;16894;49.456;10.644;2022-12-11T02:35:59;47.37;;;22.73;;
30068;SDS011;16894;49.456;10.644;2022-12-11T02:38:45;44.97;;;22.60;;
30068;SDS011;16894;49.456;10.644;2022-12-11T02:41:33;42.35;;;21.17;;
30068;SDS011;16894;49.456;10.644;2022-12-11T02:44:21;39.35;;;21.70;;
30068;SDS011;16894;49.456;10.644;2022-12-11T02:47:10;42.78;;;21.83;;
30068;SDS011;16894;49.456;10.644;2022-12-11T02:49:57;46.00;;;20.45;;
30068;SDS011;16894;49.456;10.644;2022-12-11T02:52:44;41.10;;;21.75;;
30068;SDS011;16894;49.456;10.644;2022-12-11T02:55:30;43.22;;;21.00;;
30068;SDS011;16894;49.456;10.644;2022-12-11T02:58:16;35.83;;;20.52;;
30068;SDS011;16894;49.456;10.644;2022-12-11T03:01:07;37.22;;;20.73;;
30068;SDS011;16894;49.456;10.644;2022-12-11T03:03:51;35.47;;;19.85;;
30068;SDS011;16894;49.456;10.644;2022-12-11T03:06:39;37.72;;;20.20;;
30068;SDS011;16894;49.456;10.644;2022-12-11T03:09:28;31.40;;;18.17;;
30068;SDS011;16894;49.456;10.644;2022-12-11T03:12:13;31.00;;;17.95;;
30068;SDS011;16894;49.456;10.644;2022-12-11T03:15:05;37.85;;;19.40;;
30068;SDS011;16894;49.456;10.644;2022-12-11T03:20:57;42.30;;;19.52;;
30068;SDS011;16894;49.456;10.644;2022-12-11T03:23:48;37.35;;;19.38;;
30068;SDS011;16894;49.456;10.644;2022-12-11T03:26:47;33.70;;;18.23;;
30068;SDS011;16894;49.456;10.644;2022-12-11T03:29:38;35.47;;;18.98;;
30068;SDS011;16894;49.456;10.644;2022-12-11T03:32:28;37.20;;;19.67;;
30068;SDS011;16894;49.456;10.644;2022-12-11T03:35:35;33.97;;;18.33;;
30068;SDS011;16894;49.456;10.644;2022-12-11T03:38:24;32.88;;;18.48;;
30068;SDS011;16894;49.456;10.644;2022-12-11T03:41:15;38.47;;;19.35;;
30068;SDS011;16894;49.456;10.644;2022-12-11T03:44:02;35.53;;;18.52;;
30068;SDS011;16894;49.456;10.644;2022-12-11T03:46:46;34.63;;;18.00;;
30068;SDS011;16894;49.456;10.644;2022-12-11T03:49:37;34.08;;;18.67;;
30068;SDS011;16894;49.456;10.644;2022-12-11T03:52:24;37.72;;;19.63;;
30068;SDS011;16894;49.456;10.644;2022-12-11T03:55:11;34.70;;;19.70;;
30068;SDS011;16894;49.456;10.644;2022-12-11T03:57:58;36.55;;;19.70;;
30068;SDS011;16894;49.456;10.644;2022-12-11T04:00:42;38.08;;;19.70;;
30068;SDS011;16894;49.456;10.644;2022-12-11T04:03:26;34.22;;;19.17;;
30068;SDS011;16894;49.456;10.644;2022-12-11T04:06:10;38.00;;;18.65;;
30068;SDS011;16894;49.456;10.644;2022-12-11T04:08:54;36.15;;;20.05;;
30068;SDS011;16894;49.456;10.644;2022-12-11T04:11:38;33.10;;;18.30;;
30068;SDS011;16894;49.456;10.644;2022-12-11T04:14:25;37.75;;;20.10;;
30068;SDS011;16894;49.456;10.644;2022-12-11T04:17:29;33.88;;;19.08;;
30068;SDS011;16894;49.456;10.644;2022-12-11T04:20:34;37.92;;;19.27;;
30068;SDS011;16894;49.456;10.644;2022-12-11T04:23:37;36.40;;;18.27;;
30068;SDS011;16894;49.456;10.644;2022-12-11T04:26:40;32.78;;;17.35;;
30068;SDS011;16894;49.456;10.644;2022-12-11T04:29:28;36.58;;;18.17;;
30068;SDS011;16894;49.456;10.644;2022-12-11T04:32:13;38.33;;;19.73;;
30068;SDS011;16894;49.456;10.644;2022-12-11T04:34:57;38.05;;;18.95;;
30068;SDS011;16894;49.456;10.644;2022-12-11T04:37:41;32.15;;;17.75;;
30068;SDS011;16894;49.456;10.644;2022-12-11T04:40:25;34.63;;;19.08;;
30068;SDS011;16894;49.456;10.644;2022-12-11T04:43:10;37.65;;;20.27;;
30068;SDS011;16894;49.456;10.644;2022-12-11T04:46:01;34.38;;;18.98;;
30068;SDS011;16894;49.456;10.644;2022-12-11T04:48:53;39.47;;;21.65;;
30068;SDS011;16894;49.456;10.644;2022-12-11T04:51:37;37.72;;;20.00;;
30068;SDS011;16894;49.456;10.644;2022-12-11T04:54:21;38.88;;;20.35;;
30068;SDS011;16894;49.456;10.644;2022-12-11T04:57:05;36.80;;;19.95;;
30068;SDS011;16894;49.456;10.644;2022-12-11T04:59:49;38.97;;;20.90;;
30068;SDS011;16894;49.456;10.644;2022-12-11T05:02:34;38.40;;;20.25;;
30068;SDS011;16894;49.456;10.644;2022-12-11T05:05:20;35.17;;;19.03;;
30068;SDS011;16894;49.456;10.644;2022-12-11T05:08:04;36.05;;;19.65;;
30068;SDS011;16894;49.456;10.644;2022-12-11T05:10:58;36.10;;;20.45;;
30068;SDS011;16894;49.456;10.644;2022-12-11T05:13:45;32.50;;;19.88;;
30068;SDS011;16894;49.456;10.644;2022-12-11T05:16:29;39.90;;;19.45;;
30068;SDS011;16894;49.456;10.644;2022-12-11T05:19:13;37.45;;;19.15;;
30068;SDS011;16894;49.456;10.644;2022-12-11T05:21:58;40.28;;;19.77;;
30068;SDS011;16894;49.456;10.644;2022-12-11T05:24:42;39.90;;;19.95;;
30068;SDS011;16894;49.456;10.644;2022-12-11T05:27:28;35.92;;;19.40;;
30068;SDS011;16894;49.456;10.644;2022-12-11T05:30:12;36.42;;;20.50;;
30068;SDS011;16894;49.456;10.644;2022-12-11T05:32:56;39.50;;;20.33;;
30068;SDS011;16894;49.456;10.644;2022-12-11T05:35:45;41.60;;;21.05;;
30068;SDS011;16894;49.456;10.644;2022-12-11T05:38:30;35.40;;;20.05;;
30068;SDS011;16894;49.456;10.644;2022-12-11T05:41:16;38.35;;;20.30;;
30068;SDS011;16894;49.456;10.644;2022-12-11T05:44:02;40.15;;;20.67;;
30068;SDS011;16894;49.456;10.644;2022-12-11T05:46:46;40.50;;;20.98;;
30068;SDS011;16894;49.456;10.644;2022-12-11T05:49:30;36.92;;;19.38;;
30068;SDS011;16894;49.456;10.644;2022-12-11T05:52:14;35.97;;;19.63;;
30068;SDS011;16894;49.456;10.644;2022-12-11T05:54:59;38.35;;;20.02;;
30068;SDS011;16894;49.456;10.644;2022-12-11T05:57:43;40.00;;;20.45;;
30068;SDS011;16894;49.456;10.644;2022-12-11T06:00:27;35.35;;;20.13;;
30068;SDS011;16894;49.456;10.644;2022-12-11T06:03:11;39.90;;;20.17;;
30068;SDS011;16894;49.456;10.644;2022-12-11T06:05:56;34.25;;;19.85;;
30068;SDS011;16894;49.456;10.644;2022-12-11T06:11:29;41.30;;;21.15;;
30068;SDS011;16894;49.456;10.644;2022-12-11T06:14:15;45.27;;;23.27;;
30068;SDS011;16894;49.456;10.644;2022-12-11T06:16:59;39.58;;;21.42;;
30068;SDS011;16894;49.456;10.644;2022-12-11T06:19:44;47.72;;;22.83;;
30068;SDS011;16894;49.456;10.644;2022-12-11T06:22:28;38.33;;;20.70;;
30068;SDS011;16894;49.456;10.644;2022-12-11T06:25:13;41.53;;;21.88;;
30068;SDS011;16894;49.456;10.644;2022-12-11T06:27:57;49.67;;;22.88;;
30068;SDS011;16894;49.456;10.644;2022-12-11T06:30:42;45.25;;;23.50;;
30068;SDS011;16894;49.456;10.644;2022-12-11T06:33:27;38.33;;;20.95;;
30068;SDS011;16894;49.456;10.644;2022-12-11T06:36:16;52.05;;;24.65;;
30068;SDS011;16894;49.456;10.644;2022-12-11T06:39:02;57.00;;;27.83;;
30068;SDS011;16894;49.456;10.644;2022-12-11T06:41:46;46.47;;;23.23;;
30068;SDS011;16894;49.456;10.644;2022-12-11T06:44:30;40.67;;;20.98;;
30068;SDS011;16894;49.456;10.644;2022-12-11T06:47:14;35.45;;;19.85;;
30068;SDS011;16894;49.456;10.644;2022-12-11T06:49:59;41.45;;;20.58;;
30068;SDS011;16894;49.456;10.644;2022-12-11T06:52:45;37.10;;;18.70;;
30068;SDS011;16894;49.456;10.644;2022-12-11T06:55:29;39.58;;;20.60;;
30068;SDS011;16894;49.456;10.644;2022-12-11T06:58:13;35.50;;;20.48;;
30068;SDS011;16894;49.456;10.644;2022-12-11T07:00:57;35.90;;;20.55;;
30068;SDS011;16894;49.456;10.644;2022-12-11T07:03:41;39.42;;;21.00;;
30068;SDS011;16894;49.456;10.644;2022-12-11T07:06:26;44.17;;;21.25;;
30068;SDS011;16894;49.456;10.644;2022-12-11T07:09:11;33.53;;;19.05;;
30068;SDS011;16894;49.456;10.644;2022-12-11T07:11:55;32.78;;;19.48;;
30068;SDS011;16894;49.456;10.644;2022-12-11T07:14:40;35.47;;;19.13;;
30068;SDS011;16894;49.456;10.644;2022-12-11T07:17:24;33.55;;;18.95;;
30068;SDS011;16894;49.456;10.644;2022-12-11T07:20:08;32.00;;;17.92;;
30068;SDS011;16894;49.456;10.644;2022-12-11T07:22:53;36.42;;;19.15;;
30068;SDS011;16894;49.456;10.644;2022-12-11T07:25:37;34.50;;;19.15;;
30068;SDS011;16894;49.456;10.644;2022-12-11T07:28:21;35.90;;;18.98;;
30068;SDS011;16894;49.456;10.644;2022-12-11T07:31:06;39.63;;;19.95;;
30068;SDS011;16894;49.456;10.644;2022-12-11T07:33:52;37.67;;;19.60;;
30068;SDS011;16894;49.456;10.644;2022-12-11T07:36:40;40.15;;;19.13;;
30068;SDS011;16894;49.456;10.644;2022-12-11T07:39:26;35.25;;;18.48;;
30068;SDS011;16894;49.456;10.644;2022-12-11T07:42:10;33.70;;;17.88;;
30068;SDS011;16894;49.456;10.644;2022-12-11T07:44:54;34.63;;;18.17;;
30068;SDS011;16894;49.456;10.644;2022-12-11T07:47:38;30.98;;;16.85;;
30068;SDS011;16894;49.456;10.644;2022-12-11T07:50:23;27.40;;;16.17;;
30068;SDS011;16894;49.456;10.644;2022-12-11T07:53:07;36.60;;;17.60;;
30068;SDS011;16894;49.456;10.644;2022-12-11T07:55:51;30.60;;;15.63;;
30068;SDS011;16894;49.456;10.644;2022-12-11T07:58:35;31.45;;;15.93;;
30068;SDS011;16894;49.456;10.644;2022-12-11T08:01:22;28.00;;;15.57;;
30068;SDS011;16894;49.456;10.644;2022-12-11T08:04:11;29.88;;;15.60;;
30068;SDS011;16894;49.456;10.644;2022-12-11T08:06:57;31.50;;;15.63;;
30068;SDS011;16894;49.456;10.644;2022-12-11T08:09:23;29.50;;;15.03;;
30068;SDS011;16894;49.456;10.644;2022-12-11T08:11:49;35.93;;;17.40;;
30068;SDS011;16894;49.456;10.644;2022-12-11T08:14:15;31.08;;;17.73;;
30068;SDS011;16894;49.456;10.644;2022-12-11T08:16:40;61.63;;;30.97;;
30068;SDS011;16894;49.456;10.644;2022-12-11T08:19:08;71.90;;;37.20;;
30068;SDS011;16894;49.456;10.644;2022-12-11T08:21:35;36.05;;;20.98;;
30068;SDS011;16894;49.456;10.644;2022-12-11T08:24:00;38.20;;;18.07;;
30068;SDS011;16894;49.456;10.644;2022-12-11T08:26:27;35.90;;;18.27;;
30068;SDS011;16894;49.456;10.644;2022-12-11T08:28:55;37.33;;;20.83;;
30068;SDS011;16894;49.456;10.644;2022-12-11T08:33:48;39.13;;;19.15;;
30068;SDS011;16894;49.456;10.644;2022-12-11T08:38:41;42.80;;;20.38;;
30068;SDS011;16894;49.456;10.644;2022-12-11T08:41:10;33.22;;;19.00;;
30068;SDS011;16894;49.456;10.644;2022-12-11T08:43:37;36.05;;;18.83;;
30068;SDS011;16894;49.456;10.644;2022-12-11T08:46:03;33.20;;;18.77;;
30068;SDS011;16894;49.456;10.644;2022-12-11T08:48:31;39.38;;;20.38;;
30068;SDS011;16894;49.456;10.644;2022-12-11T08:50:58;40.10;;;19.38;;
30068;SDS011;16894;49.456;10.644;2022-12-11T08:53:26;38.00;;;17.90;;
30068;SDS011;16894;49.456;10.644;2022-12-11T08:55:53;34.50;;;19.40;;
30068;SDS011;16894;49.456;10.644;2022-12-11T08:58:18;42.20;;;20.40;;
30068;SDS011;16894;49.456;10.644;2022-12-11T09:00:44;41.47;;;20.90;;
30068;SDS011;16894;49.456;10.644;2022-12-11T09:03:10;40.77;;;21.67;;
30068;SDS011;16894;49.456;10.644;2022-12-11T09:05:36;42.37;;;21.20;;
30068;SDS011;16894;49.456;10.644;2022-12-11T09:08:02;40.38;;;20.48;;
30068;SDS011;16894;49.456;10.644;2022-12-11T09:10:28;38.97;;;20.47;;
30068;SDS011;16894;49.456;10.644;2022-12-11T09:12:53;41.37;;;21.30;;
30068;SDS011;16894;49.456;10.644;2022-12-11T09:15:19;37.87;;;19.83;;
30068;SDS011;16894;49.456;10.644;2022-12-11T09:17:44;42.27;;;21.50;;
30068;SDS011;16894;49.456;10.644;2022-12-11T09:20:10;45.20;;;20.67;;
30068;SDS011;16894;49.456;10.644;2022-12-11T09:22:35;33.87;;;18.70;;
30068;SDS011;16894;49.456;10.644;2022-12-11T09:25:01;32.27;;;18.03;;
30068;SDS011;16894;49.456;10.644;2022-12-11T09:27:27;31.48;;;17.13;;
30068;SDS011;16894;49.456;10.644;2022-12-11T09:29:53;39.05;;;18.80;;
30068;SDS011;16894;49.456;10.644;2022-12-11T09:32:18;27.75;;;16.23;;
30068;SDS011;16894;49.456;10.644;2022-12-11T09:34:44;29.73;;;16.10;;
30068;SDS011;16894;49.456;10.644;2022-12-11T09:37:10;30.33;;;16.20;;
30068;SDS011;16894;49.456;10.644;2022-12-11T09:39:36;44.63;;;23.45;;
30068;SDS011;16894;49.456;10.644;2022-12-11T09:42:36;32.40;;;16.27;;
30068;SDS011;16894;49.456;10.644;2022-12-11T09:45:09;35.03;;;17.83;;
30068;SDS011;16894;49.456;10.644;2022-12-11T09:47:39;34.72;;;17.55;;
30068;SDS011;16894;49.456;10.644;2022-12-11T09:50:20;33.08;;;17.90;;
30068;SDS011;16894;49.456;10.644;2022-12-11T09:52:56;28.63;;;16.33;;
30068;SDS011;16894;49.456;10.644;2022-12-11T09:55:38;36.60;;;18.67;;
30068;SDS011;16894;49.456;10.644;2022-12-11T09:58:14;33.15;;;17.65;;
30068;SDS011;16894;49.456;10.644;2022-12-11T10:01:37;33.90;;;19.00;;
30068;SDS011;16894;49.456;10.644;2022-12-11T10:04:04;56.13;;;29.23;;
30068;SDS011;16894;49.456;10.644;2022-12-11T10:09:28;87.63;;;43.92;;
30068;SDS011;16894;49.456;10.644;2022-12-11T10:11:57;70.80;;;39.65;;
30068;SDS011;16894;49.456;10.644;2022-12-11T10:14:48;56.67;;;32.65;;
30068;SDS011;16894;49.456;10.644;2022-12-11T10:17:36;69.57;;;32.80;;
30068;SDS011;16894;49.456;10.644;2022-12-11T10:22:50;37.58;;;18.90;;
30068;SDS011;16894;49.456;10.644;2022-12-11T10:25:21;39.28;;;20.73;;
30068;SDS011;16894;49.456;10.644;2022-12-11T10:27:51;38.15;;;19.25;;
30068;SDS011;16894;49.456;10.644;2022-12-11T10:30:18;38.50;;;19.27;;
30068;SDS011;16894;49.456;10.644;2022-12-11T10:35:37;38.42;;;18.80;;
30068;SDS011;16894;49.456;10.644;2022-12-11T10:41:00;32.35;;;18.30;;
30068;SDS011;16894;49.456;10.644;2022-12-11T10:43:34;29.80;;;16.83;;
30068;SDS011;16894;49.456;10.644;2022-12-11T10:46:03;41.53;;;19.17;;
30068;SDS011;16894;49.456;10.644;2022-12-11T10:48:30;46.22;;;19.42;;
30068;SDS011;16894;49.456;10.644;2022-12-11T10:51:00;35.55;;;18.50;;
30068;SDS011;16894;49.456;10.644;2022-12-11T10:53:29;30.95;;;17.15;;
30068;SDS011;16894;49.456;10.644;2022-12-11T10:55:56;41.75;;;19.35;;
30068;SDS011;16894;49.456;10.644;2022-12-11T10:58:24;34.63;;;19.20;;
30068;SDS011;16894;49.456;10.644;2022-12-11T11:03:27;28.40;;;15.55;;
30068;SDS011;16894;49.456;10.644;2022-12-11T11:11:25;31.58;;;16.15;;
30068;SDS011;16894;49.456;10.644;2022-12-11T11:14:13;30.58;;;16.35;;
30068;SDS011;16894;49.456;10.644;2022-12-11T11:16:41;37.10;;;15.70;;
30068;SDS011;16894;49.456;10.644;2022-12-11T11:19:22;36.88;;;18.52;;
30068;SDS011;16894;49.456;10.644;2022-12-11T11:21:58;30.73;;;16.08;;
30068;SDS011;16894;49.456;10.644;2022-12-11T11:24:46;30.42;;;15.82;;
30068;SDS011;16894;49.456;10.644;2022-12-11T11:27:27;34.17;;;16.90;;
30068;SDS011;16894;49.456;10.644;2022-12-11T11:29:54;34.83;;;18.50;;
30068;SDS011;16894;49.456;10.644;2022-12-11T11:32:32;36.55;;;17.83;;
30068;SDS011;16894;49.456;10.644;2022-12-11T11:35:13;38.25;;;16.95;;
30068;SDS011;16894;49.456;10.644;2022-12-11T11:37:45;39.35;;;19.35;;
30068;SDS011;16894;49.456;10.644;2022-12-11T11:40:18;31.88;;;16.83;;
30068;SDS011;16894;49.456;10.644;2022-12-11T11:42:48;36.10;;;16.95;;
30068;SDS011;16894;49.456;10.644;2022-12-11T11:45:24;34.00;;;16.73;;
30068;SDS011;16894;49.456;10.644;2022-12-11T11:50:44;29.58;;;14.15;;
30068;SDS011;16894;49.456;10.644;2022-12-11T11:53:12;23.45;;;13.90;;
30068;SDS011;16894;49.456;10.644;2022-12-11T12:01:20;27.02;;;15.50;;
30068;SDS011;16894;49.456;10.644;2022-12-11T12:03:46;33.35;;;17.08;;
30068;SDS011;16894;49.456;10.644;2022-12-11T12:15:07;27.17;;;14.32;;
30068;SDS011;16894;49.456;10.644;2022-12-11T12:17:49;30.52;;;14.05;;
30068;SDS011;16894;49.456;10.644;2022-12-11T12:28:53;34.72;;;18.50;;
30068;SDS011;16894;49.456;10.644;2022-12-11T12:31:39;24.42;;;13.80;;
30068;SDS011;16894;49.456;10.644;2022-12-11T12:40:31;36.72;;;17.63;;
30068;SDS011;16894;49.456;10.644;2022-12-11T12:43:02;31.48;;;15.00;;
30068;SDS011;16894;49.456;10.644;2022-12-11T12:45:47;26.95;;;16.45;;
30068;SDS011;16894;49.456;10.644;2022-12-11T12:48:23;32.53;;;17.92;;
30068;SDS011;16894;49.456;10.644;2022-12-11T12:50:51;39.03;;;18.52;;
30068;SDS011;16894;49.456;10.644;2022-12-11T12:53:18;26.48;;;15.40;;
30068;SDS011;16894;49.456;10.644;2022-12-11T12:55:47;27.05;;;14.60;;
30068;SDS011;16894;49.456;10.644;2022-12-11T12:58:27;25.83;;;13.45;;
30068;SDS011;16894;49.456;10.644;2022-12-11T13:01:18;25.02;;;13.88;;
30068;SDS011;16894;49.456;10.644;2022-12-11T13:06:33;30.08;;;13.85;;
30068;SDS011;16894;49.456;10.644;2022-12-11T13:09:09;29.40;;;14.50;;
30068;SDS011;16894;49.456;10.644;2022-12-11T13:11:50;36.65;;;16.67;;
30068;SDS011;16894;49.456;10.644;2022-12-11T13:14:31;45.35;;;19.30;;
30068;SDS011;16894;49.456;10.644;2022-12-11T13:27:23;29.15;;;15.82;;
30068;SDS011;16894;49.456;10.644;2022-12-11T13:32:40;25.65;;;14.73;;
30068;SDS011;16894;49.456;10.644;2022-12-11T13:35:22;40.00;;;16.77;;
30068;SDS011;16894;49.456;10.644;2022-12-11T13:37:48;51.28;;;22.50;;
30068;SDS011;16894;49.456;10.644;2022-12-11T13:40:17;84.25;;;32.03;;
30068;SDS011;16894;49.456;10.644;2022-12-11T13:42:47;49.75;;;21.35;;
30068;SDS011;16894;49.456;10.644;2022-12-11T13:45:26;64.20;;;26.02;;
30068;SDS011;16894;49.456;10.644;2022-12-11T13:48:03;39.70;;;18.75;;
30068;SDS011;16894;49.456;10.644;2022-12-11T13:50:48;36.25;;;16.92;;
30068;SDS011;16894;49.456;10.644;2022-12-11T13:53:16;42.70;;;19.45;;
30068;SDS011;16894;49.456;10.644;2022-12-11T13:55:42;48.78;;;19.50;;
30068;SDS011;16894;49.456;10.644;2022-12-11T13:58:14;49.60;;;19.20;;
30068;SDS011;16894;49.456;10.644;2022-12-11T14:00:41;27.92;;;14.52;;
30068;SDS011;16894;49.456;10.644;2022-12-11T14:03:06;25.17;;;14.73;;
30068;SDS011;16894;49.456;10.644;2022-12-11T14:05:32;28.55;;;14.93;;
30068;SDS011;16894;49.456;10.644;2022-12-11T14:08:00;26.13;;;13.35;;
30068;SDS011;16894;49.456;10.644;2022-12-11T14:10:32;29.60;;;15.50;;
30068;SDS011;16894;49.456;10.644;2022-12-11T14:15:23;32.40;;;16.53;;
30068;SDS011;16894;49.456;10.644;2022-12-11T14:17:50;35.47;;;19.40;;
30068;SDS011;16894;49.456;10.644;2022-12-11T14:20:27;33.72;;;16.60;;
30068;SDS011;16894;49.456;10.644;2022-12-11T14:23:04;27.48;;;14.02;;
30068;SDS011;16894;49.456;10.644;2022-12-11T14:25:42;30.00;;;15.65;;
30068;SDS011;16894;49.456;10.644;2022-12-11T14:28:17;30.05;;;14.90;;
30068;SDS011;16894;49.456;10.644;2022-12-11T14:30:46;25.75;;;13.85;;
30068;SDS011;16894;49.456;10.644;2022-12-11T14:33:15;29.95;;;15.48;;
30068;SDS011;16894;49.456;10.644;2022-12-11T14:35:42;40.33;;;16.73;;
30068;SDS011;16894;49.456;10.644;2022-12-11T14:38:13;36.72;;;15.63;;
30068;SDS011;16894;49.456;10.644;2022-12-11T14:40:44;30.13;;;14.25;;
30068;SDS011;16894;49.456;10.644;2022-12-11T14:43:18;18.98;;;11.10;;
30068;SDS011;16894;49.456;10.644;2022-12-11T14:45:53;22.98;;;11.70;;
30068;SDS011;16894;49.456;10.644;2022-12-11T14:48:23;25.10;;;12.35;;
30068;SDS011;16894;49.456;10.644;2022-12-11T14:50:52;22.75;;;11.25;;
30068;SDS011;16894;49.456;10.644;2022-12-11T14:53:25;25.60;;;12.63;;
30068;SDS011;16894;49.456;10.644;2022-12-11T14:55:55;27.33;;;12.70;;
30068;SDS011;16894;49.456;10.644;2022-12-11T14:58:25;35.08;;;15.20;;
30068;SDS011;16894;49.456;10.644;2022-12-11T15:00:55;26.40;;;14.27;;
30068;SDS011;16894;49.456;10.644;2022-12-11T15:03:28;27.00;;;12.95;;
30068;SDS011;16894;49.456;10.644;2022-12-11T15:05:59;39.47;;;17.20;;
30068;SDS011;16894;49.456;10.644;2022-12-11T15:08:30;63.08;;;25.25;;
30068;SDS011;16894;49.456;10.644;2022-12-11T15:13:48;55.40;;;17.67;;
30068;SDS011;16894;49.456;10.644;2022-12-11T15:16:15;61.75;;;18.73;;
30068;SDS011;16894;49.456;10.644;2022-12-11T15:18:40;58.67;;;20.15;;
30068;SDS011;16894;49.456;10.644;2022-12-11T15:21:07;41.63;;;16.73;;
30068;SDS011;16894;49.456;10.644;2022-12-11T15:23:49;58.97;;;19.13;;
30068;SDS011;16894;49.456;10.644;2022-12-11T15:26:33;50.78;;;17.95;;
30068;SDS011;16894;49.456;10.644;2022-12-11T15:29:06;29.15;;;14.20;;
30068;SDS011;16894;49.456;10.644;2022-12-11T15:32:02;26.40;;;13.68;;
30068;SDS011;16894;49.456;10.644;2022-12-11T15:34:50;64.72;;;21.17;;
30068;SDS011;16894;49.456;10.644;2022-12-11T15:37:37;61.47;;;21.55;;
30068;SDS011;16894;49.456;10.644;2022-12-11T15:40:04;45.78;;;16.98;;
30068;SDS011;16894;49.456;10.644;2022-12-11T15:42:31;75.63;;;24.30;;
30068;SDS011;16894;49.456;10.644;2022-12-11T15:45:04;71.97;;;27.25;;
30068;SDS011;16894;49.456;10.644;2022-12-11T15:47:32;43.63;;;19.05;;
30068;SDS011;16894;49.456;10.644;2022-12-11T15:49:58;30.87;;;15.07;;
30068;SDS011;16894;49.456;10.644;2022-12-11T15:52:36;45.38;;;18.27;;
30068;SDS011;16894;49.456;10.644;2022-12-11T15:55:02;43.35;;;19.55;;
30068;SDS011;16894;49.456;10.644;2022-12-11T15:57:28;41.00;;;19.10;;
30068;SDS011;16894;49.456;10.644;2022-12-11T15:59:54;33.88;;;16.73;;
30068;SDS011;16894;49.456;10.644;2022-12-11T16:02:20;31.23;;;16.00;;
30068;SDS011;16894;49.456;10.644;2022-12-11T16:04:46;32.45;;;17.30;;
30068;SDS011;16894;49.456;10.644;2022-12-11T16:07:14;36.97;;;17.90;;
30068;SDS011;16894;49.456;10.644;2022-12-11T16:09:41;33.95;;;17.38;;
30068;SDS011;16894;49.456;10.644;2022-12-11T16:12:07;34.40;;;16.65;;
30068;SDS011;16894;49.456;10.644;2022-12-11T16:14:33;34.67;;;17.95;;
30068;SDS011;16894;49.456;10.644;2022-12-11T16:17:02;36.10;;;17.40;;
30068;SDS011;16894;49.456;10.644;2022-12-11T16:21:54;37.13;;;18.08;;
30068;SDS011;16894;49.456;10.644;2022-12-11T16:24:19;34.67;;;18.43;;
30068;SDS011;16894;49.456;10.644;2022-12-11T16:26:45;34.07;;;17.33;;
30068;SDS011;16894;49.456;10.644;2022-12-11T16:29:10;37.30;;;18.03;;
30068;SDS011;16894;49.456;10.644;2022-12-11T16:31:36;37.80;;;18.50;;
30068;SDS011;16894;49.456;10.644;2022-12-11T16:34:02;38.00;;;19.90;;
30068;SDS011;16894;49.456;10.644;2022-12-11T16:36:27;41.23;;;19.50;;
30068;SDS011;16894;49.456;10.644;2022-12-11T16:38:53;42.73;;;19.03;;
30068;SDS011;16894;49.456;10.644;2022-12-11T16:41:18;44.05;;;20.05;;
30068;SDS011;16894;49.456;10.644;2022-12-11T16:43:44;42.80;;;19.98;;
30068;SDS011;16894;49.456;10.644;2022-12-11T16:46:10;41.53;;;20.80;;
30068;SDS011;16894;49.456;10.644;2022-12-11T16:48:35;38.80;;;19.53;;
30068;SDS011;16894;49.456;10.644;2022-12-11T16:51:01;34.10;;;18.93;;
30068;SDS011;16894;49.456;10.644;2022-12-11T16:53:26;38.20;;;19.70;;